sensor_id;sensor_type;location;lat;lon;timestamp;P1;durP1;ratioP1;P2;durP2;ratioP2
46835;SDS011;32573;51.290;6.926;2023-07-29T00:00:22;2.80;;;1.15;;
46835;SDS011;32573;51.290;6.926;2023-07-29T00:02:51;2.80;;;1.15;;
46835;SDS011;32573;51.290;6.926;2023-07-29T00:05:19;2.67;;;1.10;;
46835;SDS011;32573;51.290;6.926;2023-07-29T00:07:48;2.67;;;1.10;;
46835;SDS011;32573;51.290;6.926;2023-07-29T00:10:16;2.90;;;1.10;;
46835;SDS011;32573;51.290;6.926;2023-07-29T00:12:45;2.03;;;1.02;;
46835;SDS011;32573;51.290;6.926;2023-07-29T00:15:13;2.67;;;1.10;;
46835;SDS011;32573;51.290;6.926;2023-07-29T00:17:43;2.42;;;1.08;;
46835;SDS011;32573;51.290;6.926;2023-07-29T00:20:12;2.50;;;0.90;;
46835;SDS011;32573;51.290;6.926;2023-07-29T00:22:40;2.45;;;1.10;;
46835;SDS011;32573;51.290;6.926;2023-07-29T00:25:09;2.75;;;1.10;;
46835;SDS011;32573;51.290;6.926;2023-07-29T00:27:37;2.30;;;1.00;;
46835;SDS011;32573;51.290;6.926;2023-07-29T00:30:06;2.40;;;1.00;;
46835;SDS011;32573;51.290;6.926;2023-07-29T00:32:36;3.08;;;1.30;;
46835;SDS011;32573;51.290;6.926;2023-07-29T00:35:07;2.20;;;1.00;;
46835;SDS011;32573;51.290;6.926;2023-07-29T00:37:36;2.72;;;1.10;;
46835;SDS011;32573;51.290;6.926;2023-07-29T00:40:07;2.47;;;1.08;;
46835;SDS011;32573;51.290;6.926;2023-07-29T00:42:42;3.75;;;1.10;;
46835;SDS011;32573;51.290;6.926;2023-07-29T00:45:10;2.80;;;1.10;;
46835;SDS011;32573;51.290;6.926;2023-07-29T00:47:40;2.45;;;1.17;;
46835;SDS011;32573;51.290;6.926;2023-07-29T00:50:12;1.88;;;0.90;;
46835;SDS011;32573;51.290;6.926;2023-07-29T00:52:41;2.30;;;1.08;;
46835;SDS011;32573;51.290;6.926;2023-07-29T00:55:09;2.40;;;1.10;;
46835;SDS011;32573;51.290;6.926;2023-07-29T00:57:38;2.42;;;1.20;;
46835;SDS011;32573;51.290;6.926;2023-07-29T01:00:07;2.40;;;1.20;;
46835;SDS011;32573;51.290;6.926;2023-07-29T01:02:37;3.92;;;1.38;;
46835;SDS011;32573;51.290;6.926;2023-07-29T01:05:06;2.90;;;1.10;;
46835;SDS011;32573;51.290;6.926;2023-07-29T01:07:38;3.13;;;1.10;;
46835;SDS011;32573;51.290;6.926;2023-07-29T01:10:14;2.63;;;1.00;;
46835;SDS011;32573;51.290;6.926;2023-07-29T01:12:54;2.58;;;1.08;;
46835;SDS011;32573;51.290;6.926;2023-07-29T01:15:31;3.03;;;1.15;;
46835;SDS011;32573;51.290;6.926;2023-07-29T01:18:04;2.28;;;1.15;;
46835;SDS011;32573;51.290;6.926;2023-07-29T01:20:37;2.50;;;1.15;;
46835;SDS011;32573;51.290;6.926;2023-07-29T01:23:09;2.90;;;1.15;;
46835;SDS011;32573;51.290;6.926;2023-07-29T01:25:39;2.90;;;1.10;;
46835;SDS011;32573;51.290;6.926;2023-07-29T01:28:08;2.50;;;1.20;;
46835;SDS011;32573;51.290;6.926;2023-07-29T01:30:38;2.67;;;1.00;;
46835;SDS011;32573;51.290;6.926;2023-07-29T01:33:09;2.28;;;1.00;;
46835;SDS011;32573;51.290;6.926;2023-07-29T01:35:45;1.77;;;1.00;;
46835;SDS011;32573;51.290;6.926;2023-07-29T01:38:18;2.47;;;1.02;;
46835;SDS011;32573;51.290;6.926;2023-07-29T01:40:49;2.50;;;1.10;;
46835;SDS011;32573;51.290;6.926;2023-07-29T01:43:20;2.47;;;1.08;;
46835;SDS011;32573;51.290;6.926;2023-07-29T01:45:52;2.35;;;1.02;;
46835;SDS011;32573;51.290;6.926;2023-07-29T01:48:22;2.40;;;1.13;;
46835;SDS011;32573;51.290;6.926;2023-07-29T01:50:50;2.97;;;1.10;;
46835;SDS011;32573;51.290;6.926;2023-07-29T01:53:19;2.30;;;1.08;;
46835;SDS011;32573;51.290;6.926;2023-07-29T01:55:49;3.75;;;1.15;;
46835;SDS011;32573;51.290;6.926;2023-07-29T01:58:18;2.78;;;1.30;;
46835;SDS011;32573;51.290;6.926;2023-07-29T02:00:48;2.40;;;1.10;;
46835;SDS011;32573;51.290;6.926;2023-07-29T02:03:19;2.80;;;1.38;;
46835;SDS011;32573;51.290;6.926;2023-07-29T02:06:04;2.38;;;1.10;;
46835;SDS011;32573;51.290;6.926;2023-07-29T02:08:33;2.60;;;1.20;;
46835;SDS011;32573;51.290;6.926;2023-07-29T02:11:03;2.58;;;1.13;;
46835;SDS011;32573;51.290;6.926;2023-07-29T02:13:32;2.55;;;1.10;;
46835;SDS011;32573;51.290;6.926;2023-07-29T02:16:00;3.15;;;1.20;;
46835;SDS011;32573;51.290;6.926;2023-07-29T02:18:30;3.03;;;1.35;;
46835;SDS011;32573;51.290;6.926;2023-07-29T02:20:58;2.72;;;1.17;;
46835;SDS011;32573;51.290;6.926;2023-07-29T02:23:27;2.80;;;1.20;;
46835;SDS011;32573;51.290;6.926;2023-07-29T02:25:55;2.55;;;1.08;;
46835;SDS011;32573;51.290;6.926;2023-07-29T02:28:25;2.90;;;1.25;;
46835;SDS011;32573;51.290;6.926;2023-07-29T02:31:08;3.17;;;1.17;;
46835;SDS011;32573;51.290;6.926;2023-07-29T02:33:38;2.38;;;1.20;;
46835;SDS011;32573;51.290;6.926;2023-07-29T02:36:07;2.97;;;1.30;;
46835;SDS011;32573;51.290;6.926;2023-07-29T02:38:36;2.80;;;1.33;;
46835;SDS011;32573;51.290;6.926;2023-07-29T02:41:04;2.88;;;1.38;;
46835;SDS011;32573;51.290;6.926;2023-07-29T02:43:34;2.65;;;1.27;;
46835;SDS011;32573;51.290;6.926;2023-07-29T02:46:03;2.60;;;1.23;;
46835;SDS011;32573;51.290;6.926;2023-07-29T02:48:32;2.63;;;1.20;;
46835;SDS011;32573;51.290;6.926;2023-07-29T02:51:00;2.88;;;1.30;;
46835;SDS011;32573;51.290;6.926;2023-07-29T02:53:29;3.15;;;1.30;;
46835;SDS011;32573;51.290;6.926;2023-07-29T02:55:57;3.90;;;1.45;;
46835;SDS011;32573;51.290;6.926;2023-07-29T02:58:26;2.63;;;1.20;;
46835;SDS011;32573;51.290;6.926;2023-07-29T03:01:01;3.10;;;1.38;;
46835;SDS011;32573;51.290;6.926;2023-07-29T03:03:30;4.18;;;1.40;;
46835;SDS011;32573;51.290;6.926;2023-07-29T03:05:59;3.13;;;1.50;;
46835;SDS011;32573;51.290;6.926;2023-07-29T03:08:29;3.08;;;1.45;;
46835;SDS011;32573;51.290;6.926;2023-07-29T03:10:58;3.05;;;1.50;;
46835;SDS011;32573;51.290;6.926;2023-07-29T03:13:27;2.83;;;1.25;;
46835;SDS011;32573;51.290;6.926;2023-07-29T03:16:00;3.13;;;1.20;;
46835;SDS011;32573;51.290;6.926;2023-07-29T03:18:34;3.00;;;1.40;;
46835;SDS011;32573;51.290;6.926;2023-07-29T03:21:02;3.42;;;1.50;;
46835;SDS011;32573;51.290;6.926;2023-07-29T03:23:32;3.35;;;1.40;;
46835;SDS011;32573;51.290;6.926;2023-07-29T03:26:01;3.22;;;1.42;;
46835;SDS011;32573;51.290;6.926;2023-07-29T03:28:37;2.75;;;1.33;;
46835;SDS011;32573;51.290;6.926;2023-07-29T03:31:08;3.10;;;1.40;;
46835;SDS011;32573;51.290;6.926;2023-07-29T03:33:38;3.17;;;1.52;;
46835;SDS011;32573;51.290;6.926;2023-07-29T03:36:06;3.05;;;1.40;;
46835;SDS011;32573;51.290;6.926;2023-07-29T03:38:35;3.00;;;1.30;;
46835;SDS011;32573;51.290;6.926;2023-07-29T03:41:07;2.75;;;1.30;;
46835;SDS011;32573;51.290;6.926;2023-07-29T03:43:36;3.28;;;1.27;;
46835;SDS011;32573;51.290;6.926;2023-07-29T03:46:05;3.30;;;1.45;;
46835;SDS011;32573;51.290;6.926;2023-07-29T03:48:40;3.42;;;1.38;;
46835;SDS011;32573;51.290;6.926;2023-07-29T03:51:09;3.42;;;1.67;;
46835;SDS011;32573;51.290;6.926;2023-07-29T03:53:38;3.40;;;1.58;;
46835;SDS011;32573;51.290;6.926;2023-07-29T03:56:06;3.05;;;1.45;;
46835;SDS011;32573;51.290;6.926;2023-07-29T03:58:35;3.33;;;1.45;;
46835;SDS011;32573;51.290;6.926;2023-07-29T04:01:03;3.30;;;1.30;;
46835;SDS011;32573;51.290;6.926;2023-07-29T04:03:33;3.50;;;1.70;;
46835;SDS011;32573;51.290;6.926;2023-07-29T04:06:03;3.47;;;1.70;;
46835;SDS011;32573;51.290;6.926;2023-07-29T04:08:32;3.55;;;1.50;;
46835;SDS011;32573;51.290;6.926;2023-07-29T04:11:00;4.05;;;1.70;;
46835;SDS011;32573;51.290;6.926;2023-07-29T04:13:29;3.55;;;1.67;;
46835;SDS011;32573;51.290;6.926;2023-07-29T04:15:58;3.42;;;1.48;;
46835;SDS011;32573;51.290;6.926;2023-07-29T04:18:27;3.33;;;1.52;;
46835;SDS011;32573;51.290;6.926;2023-07-29T04:20:56;3.13;;;1.38;;
46835;SDS011;32573;51.290;6.926;2023-07-29T04:23:26;3.55;;;1.30;;
46835;SDS011;32573;51.290;6.926;2023-07-29T04:25:54;3.00;;;1.50;;
46835;SDS011;32573;51.290;6.926;2023-07-29T04:28:23;3.08;;;1.40;;
46835;SDS011;32573;51.290;6.926;2023-07-29T04:30:51;3.05;;;1.25;;
46835;SDS011;32573;51.290;6.926;2023-07-29T04:33:20;3.47;;;1.50;;
46835;SDS011;32573;51.290;6.926;2023-07-29T04:35:48;3.38;;;1.40;;
46835;SDS011;32573;51.290;6.926;2023-07-29T04:38:17;3.60;;;1.48;;
46835;SDS011;32573;51.290;6.926;2023-07-29T04:40:47;3.17;;;1.30;;
46835;SDS011;32573;51.290;6.926;2023-07-29T04:43:17;2.85;;;1.30;;
46835;SDS011;32573;51.290;6.926;2023-07-29T04:45:46;3.28;;;1.50;;
46835;SDS011;32573;51.290;6.926;2023-07-29T04:48:15;3.30;;;1.50;;
46835;SDS011;32573;51.290;6.926;2023-07-29T04:50:43;3.30;;;1.50;;
46835;SDS011;32573;51.290;6.926;2023-07-29T04:53:12;3.38;;;1.42;;
46835;SDS011;32573;51.290;6.926;2023-07-29T04:55:41;3.03;;;1.27;;
46835;SDS011;32573;51.290;6.926;2023-07-29T04:58:11;3.40;;;1.50;;
46835;SDS011;32573;51.290;6.926;2023-07-29T05:00:40;2.92;;;1.50;;
46835;SDS011;32573;51.290;6.926;2023-07-29T05:03:08;3.28;;;1.40;;
46835;SDS011;32573;51.290;6.926;2023-07-29T05:05:37;3.00;;;1.40;;
46835;SDS011;32573;51.290;6.926;2023-07-29T05:08:05;4.15;;;1.65;;
46835;SDS011;32573;51.290;6.926;2023-07-29T05:10:34;2.90;;;1.40;;
46835;SDS011;32573;51.290;6.926;2023-07-29T05:13:03;3.20;;;1.40;;
46835;SDS011;32573;51.290;6.926;2023-07-29T05:15:32;3.47;;;1.40;;
46835;SDS011;32573;51.290;6.926;2023-07-29T05:18:01;3.00;;;1.50;;
46835;SDS011;32573;51.290;6.926;2023-07-29T05:20:29;3.47;;;1.30;;
46835;SDS011;32573;51.290;6.926;2023-07-29T05:22:58;2.97;;;1.33;;
46835;SDS011;32573;51.290;6.926;2023-07-29T05:25:27;3.00;;;1.42;;
46835;SDS011;32573;51.290;6.926;2023-07-29T05:27:56;3.25;;;1.45;;
46835;SDS011;32573;51.290;6.926;2023-07-29T05:30:24;3.10;;;1.50;;
46835;SDS011;32573;51.290;6.926;2023-07-29T05:32:55;3.45;;;1.38;;
46835;SDS011;32573;51.290;6.926;2023-07-29T05:35:24;4.47;;;1.30;;
46835;SDS011;32573;51.290;6.926;2023-07-29T05:37:52;3.55;;;1.40;;
46835;SDS011;32573;51.290;6.926;2023-07-29T05:40:21;3.60;;;1.70;;
46835;SDS011;32573;51.290;6.926;2023-07-29T05:42:49;3.40;;;1.40;;
46835;SDS011;32573;51.290;6.926;2023-07-29T05:45:18;2.92;;;1.42;;
46835;SDS011;32573;51.290;6.926;2023-07-29T05:47:47;3.03;;;1.50;;
46835;SDS011;32573;51.290;6.926;2023-07-29T05:50:17;3.10;;;1.40;;
46835;SDS011;32573;51.290;6.926;2023-07-29T05:52:47;3.40;;;1.55;;
46835;SDS011;32573;51.290;6.926;2023-07-29T05:55:16;3.60;;;1.65;;
46835;SDS011;32573;51.290;6.926;2023-07-29T05:57:44;4.38;;;1.70;;
46835;SDS011;32573;51.290;6.926;2023-07-29T06:00:13;3.83;;;1.90;;
46835;SDS011;32573;51.290;6.926;2023-07-29T06:02:42;3.63;;;1.77;;
46835;SDS011;32573;51.290;6.926;2023-07-29T06:05:15;3.40;;;1.50;;
46835;SDS011;32573;51.290;6.926;2023-07-29T06:07:45;3.70;;;1.70;;
46835;SDS011;32573;51.290;6.926;2023-07-29T06:10:15;3.50;;;1.67;;
46835;SDS011;32573;51.290;6.926;2023-07-29T06:12:45;3.72;;;1.50;;
46835;SDS011;32573;51.290;6.926;2023-07-29T06:15:14;3.80;;;1.60;;
46835;SDS011;32573;51.290;6.926;2023-07-29T06:17:43;3.22;;;1.60;;
46835;SDS011;32573;51.290;6.926;2023-07-29T06:20:11;5.20;;;1.92;;
46835;SDS011;32573;51.290;6.926;2023-07-29T06:22:40;4.40;;;1.80;;
46835;SDS011;32573;51.290;6.926;2023-07-29T06:25:10;3.45;;;1.60;;
46835;SDS011;32573;51.290;6.926;2023-07-29T06:27:39;4.07;;;1.45;;
46835;SDS011;32573;51.290;6.926;2023-07-29T06:30:08;2.75;;;1.30;;
46835;SDS011;32573;51.290;6.926;2023-07-29T06:32:36;3.30;;;1.40;;
46835;SDS011;32573;51.290;6.926;2023-07-29T06:35:05;2.83;;;1.30;;
46835;SDS011;32573;51.290;6.926;2023-07-29T06:37:34;2.80;;;1.25;;
46835;SDS011;32573;51.290;6.926;2023-07-29T06:40:03;3.67;;;1.27;;
46835;SDS011;32573;51.290;6.926;2023-07-29T06:42:33;3.60;;;1.50;;
46835;SDS011;32573;51.290;6.926;2023-07-29T06:45:04;3.03;;;1.33;;
46835;SDS011;32573;51.290;6.926;2023-07-29T06:47:33;2.97;;;1.30;;
46835;SDS011;32573;51.290;6.926;2023-07-29T06:50:02;3.38;;;1.10;;
46835;SDS011;32573;51.290;6.926;2023-07-29T06:52:31;2.53;;;1.15;;
46835;SDS011;32573;51.290;6.926;2023-07-29T06:54:59;2.30;;;1.10;;
46835;SDS011;32573;51.290;6.926;2023-07-29T06:57:28;2.40;;;1.00;;
46835;SDS011;32573;51.290;6.926;2023-07-29T06:59:58;2.22;;;1.08;;
46835;SDS011;32573;51.290;6.926;2023-07-29T07:02:26;2.90;;;1.20;;
46835;SDS011;32573;51.290;6.926;2023-07-29T07:04:55;2.55;;;1.13;;
46835;SDS011;32573;51.290;6.926;2023-07-29T07:07:23;2.58;;;1.10;;
46835;SDS011;32573;51.290;6.926;2023-07-29T07:09:52;2.72;;;1.17;;
46835;SDS011;32573;51.290;6.926;2023-07-29T07:12:20;2.80;;;1.00;;
46835;SDS011;32573;51.290;6.926;2023-07-29T07:14:49;3.25;;;1.30;;
46835;SDS011;32573;51.290;6.926;2023-07-29T07:17:19;2.35;;;1.10;;
46835;SDS011;32573;51.290;6.926;2023-07-29T07:19:47;1.65;;;1.00;;
46835;SDS011;32573;51.290;6.926;2023-07-29T07:22:16;2.30;;;1.20;;
46835;SDS011;32573;51.290;6.926;2023-07-29T07:24:45;2.17;;;1.00;;
46835;SDS011;32573;51.290;6.926;2023-07-29T07:27:13;2.40;;;1.05;;
46835;SDS011;32573;51.290;6.926;2023-07-29T07:29:42;1.73;;;0.90;;
46835;SDS011;32573;51.290;6.926;2023-07-29T07:32:10;2.35;;;0.95;;
46835;SDS011;32573;51.290;6.926;2023-07-29T07:34:40;2.10;;;0.90;;
46835;SDS011;32573;51.290;6.926;2023-07-29T07:37:08;2.10;;;1.00;;
46835;SDS011;32573;51.290;6.926;2023-07-29T07:39:37;2.08;;;1.00;;
46835;SDS011;32573;51.290;6.926;2023-07-29T07:42:05;1.83;;;0.90;;
46835;SDS011;32573;51.290;6.926;2023-07-29T07:44:34;1.98;;;0.90;;
46835;SDS011;32573;51.290;6.926;2023-07-29T07:47:03;2.47;;;1.02;;
46835;SDS011;32573;51.290;6.926;2023-07-29T07:49:31;2.55;;;1.00;;
46835;SDS011;32573;51.290;6.926;2023-07-29T07:52:01;1.77;;;0.95;;
46835;SDS011;32573;51.290;6.926;2023-07-29T07:54:30;3.83;;;1.10;;
46835;SDS011;32573;51.290;6.926;2023-07-29T07:56:58;2.33;;;1.10;;
46835;SDS011;32573;51.290;6.926;2023-07-29T07:59:27;2.50;;;1.17;;
46835;SDS011;32573;51.290;6.926;2023-07-29T08:01:55;1.70;;;0.93;;
46835;SDS011;32573;51.290;6.926;2023-07-29T08:04:23;2.58;;;1.17;;
46835;SDS011;32573;51.290;6.926;2023-07-29T08:06:52;2.63;;;0.95;;
46835;SDS011;32573;51.290;6.926;2023-07-29T08:09:22;2.55;;;1.10;;
46835;SDS011;32573;51.290;6.926;2023-07-29T08:11:51;2.20;;;1.00;;
46835;SDS011;32573;51.290;6.926;2023-07-29T08:14:19;2.38;;;1.20;;
46835;SDS011;32573;51.290;6.926;2023-07-29T08:16:47;2.60;;;1.10;;
46835;SDS011;32573;51.290;6.926;2023-07-29T08:19:16;2.15;;;1.00;;
46835;SDS011;32573;51.290;6.926;2023-07-29T08:21:48;2.25;;;1.10;;
46835;SDS011;32573;51.290;6.926;2023-07-29T08:24:16;2.25;;;0.90;;
46835;SDS011;32573;51.290;6.926;2023-07-29T08:26:46;3.80;;;1.35;;
46835;SDS011;32573;51.290;6.926;2023-07-29T08:29:15;2.42;;;1.20;;
46835;SDS011;32573;51.290;6.926;2023-07-29T08:31:43;3.20;;;1.17;;
46835;SDS011;32573;51.290;6.926;2023-07-29T08:34:12;2.53;;;1.10;;
46835;SDS011;32573;51.290;6.926;2023-07-29T08:36:40;2.20;;;0.90;;
46835;SDS011;32573;51.290;6.926;2023-07-29T08:39:09;2.35;;;1.00;;
46835;SDS011;32573;51.290;6.926;2023-07-29T08:41:51;2.60;;;1.20;;
46835;SDS011;32573;51.290;6.926;2023-07-29T08:44:26;2.40;;;1.10;;
46835;SDS011;32573;51.290;6.926;2023-07-29T08:46:58;2.10;;;0.90;;
46835;SDS011;32573;51.290;6.926;2023-07-29T08:49:28;2.63;;;1.05;;
46835;SDS011;32573;51.290;6.926;2023-07-29T08:51:58;2.78;;;1.20;;
46835;SDS011;32573;51.290;6.926;2023-07-29T08:54:27;2.15;;;0.90;;
46835;SDS011;32573;51.290;6.926;2023-07-29T08:56:57;1.80;;;0.90;;
46835;SDS011;32573;51.290;6.926;2023-07-29T08:59:27;1.73;;;0.90;;
46835;SDS011;32573;51.290;6.926;2023-07-29T09:01:56;2.05;;;0.90;;
46835;SDS011;32573;51.290;6.926;2023-07-29T09:04:26;2.03;;;0.90;;
46835;SDS011;32573;51.290;6.926;2023-07-29T09:06:56;2.15;;;0.90;;
46835;SDS011;32573;51.290;6.926;2023-07-29T09:09:25;1.73;;;0.90;;
46835;SDS011;32573;51.290;6.926;2023-07-29T09:11:53;1.92;;;0.90;;
46835;SDS011;32573;51.290;6.926;2023-07-29T09:14:23;1.25;;;0.73;;
46835;SDS011;32573;51.290;6.926;2023-07-29T09:16:52;2.63;;;1.00;;
46835;SDS011;32573;51.290;6.926;2023-07-29T09:19:24;2.25;;;0.90;;
46835;SDS011;32573;51.290;6.926;2023-07-29T09:21:53;1.35;;;0.80;;
46835;SDS011;32573;51.290;6.926;2023-07-29T09:24:22;2.22;;;0.85;;
46835;SDS011;32573;51.290;6.926;2023-07-29T09:26:51;2.20;;;0.82;;
46835;SDS011;32573;51.290;6.926;2023-07-29T09:29:22;1.90;;;0.90;;
46835;SDS011;32573;51.290;6.926;2023-07-29T09:31:52;1.60;;;0.80;;
46835;SDS011;32573;51.290;6.926;2023-07-29T09:34:20;2.05;;;0.90;;
46835;SDS011;32573;51.290;6.926;2023-07-29T09:36:50;1.83;;;0.90;;
46835;SDS011;32573;51.290;6.926;2023-07-29T09:39:19;1.60;;;0.80;;
46835;SDS011;32573;51.290;6.926;2023-07-29T09:41:51;1.63;;;0.88;;
46835;SDS011;32573;51.290;6.926;2023-07-29T09:44:20;2.00;;;0.90;;
46835;SDS011;32573;51.290;6.926;2023-07-29T09:46:50;1.58;;;0.80;;
46835;SDS011;32573;51.290;6.926;2023-07-29T09:49:18;1.77;;;0.80;;
46835;SDS011;32573;51.290;6.926;2023-07-29T09:51:47;1.95;;;0.90;;
46835;SDS011;32573;51.290;6.926;2023-07-29T09:54:15;1.92;;;0.90;;
46835;SDS011;32573;51.290;6.926;2023-07-29T09:56:44;1.83;;;0.90;;
46835;SDS011;32573;51.290;6.926;2023-07-29T09:59:13;2.25;;;0.85;;
46835;SDS011;32573;51.290;6.926;2023-07-29T10:01:47;1.67;;;0.80;;
46835;SDS011;32573;51.290;6.926;2023-07-29T10:04:17;1.67;;;0.90;;
46835;SDS011;32573;51.290;6.926;2023-07-29T10:06:46;1.23;;;0.75;;
46835;SDS011;32573;51.290;6.926;2023-07-29T10:09:15;1.30;;;0.77;;
46835;SDS011;32573;51.290;6.926;2023-07-29T10:11:44;2.42;;;1.00;;
46835;SDS011;32573;51.290;6.926;2023-07-29T10:14:12;1.35;;;0.80;;
46835;SDS011;32573;51.290;6.926;2023-07-29T10:16:42;2.42;;;0.90;;
46835;SDS011;32573;51.290;6.926;2023-07-29T10:19:12;1.75;;;0.90;;
46835;SDS011;32573;51.290;6.926;2023-07-29T10:21:45;1.73;;;0.80;;
46835;SDS011;32573;51.290;6.926;2023-07-29T10:24:18;1.77;;;0.90;;
46835;SDS011;32573;51.290;6.926;2023-07-29T10:26:57;2.45;;;0.90;;
46835;SDS011;32573;51.290;6.926;2023-07-29T10:29:29;1.80;;;0.80;;
46835;SDS011;32573;51.290;6.926;2023-07-29T10:32:01;1.92;;;0.98;;
46835;SDS011;32573;51.290;6.926;2023-07-29T10:34:31;2.00;;;0.90;;
46835;SDS011;32573;51.290;6.926;2023-07-29T10:37:02;2.65;;;1.00;;
46835;SDS011;32573;51.290;6.926;2023-07-29T10:39:37;2.72;;;1.00;;
46835;SDS011;32573;51.290;6.926;2023-07-29T10:42:06;2.20;;;1.00;;
46835;SDS011;32573;51.290;6.926;2023-07-29T10:44:50;1.92;;;0.90;;
46835;SDS011;32573;51.290;6.926;2023-07-29T10:47:22;2.60;;;1.00;;
46835;SDS011;32573;51.290;6.926;2023-07-29T10:49:52;2.40;;;0.90;;
46835;SDS011;32573;51.290;6.926;2023-07-29T10:52:30;2.17;;;1.00;;
46835;SDS011;32573;51.290;6.926;2023-07-29T10:55:23;2.58;;;1.00;;
46835;SDS011;32573;51.290;6.926;2023-07-29T10:58:04;1.52;;;0.80;;
46835;SDS011;32573;51.290;6.926;2023-07-29T11:00:44;2.35;;;0.90;;
46835;SDS011;32573;51.290;6.926;2023-07-29T11:03:13;2.47;;;1.10;;
46835;SDS011;32573;51.290;6.926;2023-07-29T11:05:44;3.17;;;1.00;;
46835;SDS011;32573;51.290;6.926;2023-07-29T11:08:19;2.08;;;0.98;;
46835;SDS011;32573;51.290;6.926;2023-07-29T11:11:02;1.48;;;0.85;;
46835;SDS011;32573;51.290;6.926;2023-07-29T11:13:33;1.77;;;0.83;;
46835;SDS011;32573;51.290;6.926;2023-07-29T11:16:03;2.10;;;1.00;;
46835;SDS011;32573;51.290;6.926;2023-07-29T11:18:34;2.28;;;0.88;;
46835;SDS011;32573;51.290;6.926;2023-07-29T11:21:03;2.40;;;1.00;;
46835;SDS011;32573;51.290;6.926;2023-07-29T11:23:34;1.88;;;0.90;;
46835;SDS011;32573;51.290;6.926;2023-07-29T11:26:04;1.40;;;0.80;;
46835;SDS011;32573;51.290;6.926;2023-07-29T11:28:37;1.83;;;0.90;;
46835;SDS011;32573;51.290;6.926;2023-07-29T11:31:06;4.13;;;1.13;;
46835;SDS011;32573;51.290;6.926;2023-07-29T11:33:38;2.65;;;1.10;;
46835;SDS011;32573;51.290;6.926;2023-07-29T11:36:16;2.70;;;1.05;;
46835;SDS011;32573;51.290;6.926;2023-07-29T11:38:47;1.98;;;0.90;;
46835;SDS011;32573;51.290;6.926;2023-07-29T11:41:19;3.35;;;1.08;;
46835;SDS011;32573;51.290;6.926;2023-07-29T11:43:48;1.83;;;0.95;;
46835;SDS011;32573;51.290;6.926;2023-07-29T11:46:20;2.10;;;1.00;;
46835;SDS011;32573;51.290;6.926;2023-07-29T11:48:49;1.98;;;0.90;;
46835;SDS011;32573;51.290;6.926;2023-07-29T11:51:17;2.25;;;1.08;;
46835;SDS011;32573;51.290;6.926;2023-07-29T11:53:47;2.40;;;1.10;;
46835;SDS011;32573;51.290;6.926;2023-07-29T11:56:17;2.10;;;1.02;;
46835;SDS011;32573;51.290;6.926;2023-07-29T11:58:45;2.20;;;0.98;;
46835;SDS011;32573;51.290;6.926;2023-07-29T12:01:14;2.38;;;0.98;;
46835;SDS011;32573;51.290;6.926;2023-07-29T12:03:42;2.35;;;1.00;;
46835;SDS011;32573;51.290;6.926;2023-07-29T12:06:11;2.40;;;1.00;;
46835;SDS011;32573;51.290;6.926;2023-07-29T12:08:40;2.05;;;0.98;;
46835;SDS011;32573;51.290;6.926;2023-07-29T12:11:11;1.98;;;0.95;;
46835;SDS011;32573;51.290;6.926;2023-07-29T12:13:41;2.35;;;1.10;;
46835;SDS011;32573;51.290;6.926;2023-07-29T12:16:10;2.25;;;0.90;;
46835;SDS011;32573;51.290;6.926;2023-07-29T12:18:44;2.58;;;1.00;;
46835;SDS011;32573;51.290;6.926;2023-07-29T12:21:15;2.10;;;1.00;;
46835;SDS011;32573;51.290;6.926;2023-07-29T12:23:45;2.17;;;1.08;;
46835;SDS011;32573;51.290;6.926;2023-07-29T12:26:14;2.67;;;1.10;;
46835;SDS011;32573;51.290;6.926;2023-07-29T12:28:45;2.40;;;1.00;;
46835;SDS011;32573;51.290;6.926;2023-07-29T12:31:14;2.08;;;1.00;;
46835;SDS011;32573;51.290;6.926;2023-07-29T12:33:42;2.38;;;1.00;;
46835;SDS011;32573;51.290;6.926;2023-07-29T12:36:11;2.30;;;1.00;;
46835;SDS011;32573;51.290;6.926;2023-07-29T12:38:42;2.17;;;1.05;;
46835;SDS011;32573;51.290;6.926;2023-07-29T12:41:11;2.40;;;1.00;;
46835;SDS011;32573;51.290;6.926;2023-07-29T12:43:40;2.50;;;1.08;;
46835;SDS011;32573;51.290;6.926;2023-07-29T12:46:09;2.13;;;1.00;;
46835;SDS011;32573;51.290;6.926;2023-07-29T12:48:37;2.20;;;1.10;;
46835;SDS011;32573;51.290;6.926;2023-07-29T12:51:06;2.22;;;1.00;;
46835;SDS011;32573;51.290;6.926;2023-07-29T12:53:34;1.92;;;0.90;;
46835;SDS011;32573;51.290;6.926;2023-07-29T12:56:03;2.55;;;1.20;;
46835;SDS011;32573;51.290;6.926;2023-07-29T12:58:31;2.90;;;1.20;;
46835;SDS011;32573;51.290;6.926;2023-07-29T13:01:01;2.22;;;1.05;;
46835;SDS011;32573;51.290;6.926;2023-07-29T13:03:30;2.90;;;1.17;;
46835;SDS011;32573;51.290;6.926;2023-07-29T13:05:59;2.45;;;1.17;;
46835;SDS011;32573;51.290;6.926;2023-07-29T13:08:29;2.38;;;1.10;;
46835;SDS011;32573;51.290;6.926;2023-07-29T13:10:58;2.80;;;1.20;;
46835;SDS011;32573;51.290;6.926;2023-07-29T13:13:26;2.60;;;1.20;;
46835;SDS011;32573;51.290;6.926;2023-07-29T13:15:55;2.55;;;1.13;;
46835;SDS011;32573;51.290;6.926;2023-07-29T13:18:27;2.80;;;1.20;;
46835;SDS011;32573;51.290;6.926;2023-07-29T13:20:56;2.78;;;1.27;;
46835;SDS011;32573;51.290;6.926;2023-07-29T13:23:24;2.50;;;1.10;;
46835;SDS011;32573;51.290;6.926;2023-07-29T13:25:53;2.50;;;1.20;;
46835;SDS011;32573;51.290;6.926;2023-07-29T13:28:21;3.08;;;1.15;;
46835;SDS011;32573;51.290;6.926;2023-07-29T13:30:50;2.60;;;1.08;;
46835;SDS011;32573;51.290;6.926;2023-07-29T13:33:18;2.20;;;1.00;;
46835;SDS011;32573;51.290;6.926;2023-07-29T13:35:48;2.13;;;1.05;;
46835;SDS011;32573;51.290;6.926;2023-07-29T13:38:17;2.25;;;0.98;;
46835;SDS011;32573;51.290;6.926;2023-07-29T13:40:46;2.05;;;1.00;;
46835;SDS011;32573;51.290;6.926;2023-07-29T13:43:17;2.75;;;1.02;;
46835;SDS011;32573;51.290;6.926;2023-07-29T13:45:46;1.98;;;0.90;;
46835;SDS011;32573;51.290;6.926;2023-07-29T13:48:17;1.92;;;0.90;;
46835;SDS011;32573;51.290;6.926;2023-07-29T13:50:45;2.05;;;0.90;;
46835;SDS011;32573;51.290;6.926;2023-07-29T13:53:15;1.63;;;0.90;;
46835;SDS011;32573;51.290;6.926;2023-07-29T13:55:44;2.25;;;1.10;;
46835;SDS011;32573;51.290;6.926;2023-07-29T13:58:12;2.55;;;1.10;;
46835;SDS011;32573;51.290;6.926;2023-07-29T14:00:41;2.20;;;1.10;;
46835;SDS011;32573;51.290;6.926;2023-07-29T14:03:09;2.10;;;1.00;;
46835;SDS011;32573;51.290;6.926;2023-07-29T14:05:38;2.90;;;1.20;;
46835;SDS011;32573;51.290;6.926;2023-07-29T14:08:06;2.13;;;1.00;;
46835;SDS011;32573;51.290;6.926;2023-07-29T14:10:36;2.22;;;1.10;;
46835;SDS011;32573;51.290;6.926;2023-07-29T14:13:04;2.45;;;1.10;;
46835;SDS011;32573;51.290;6.926;2023-07-29T14:15:33;2.38;;;1.10;;
46835;SDS011;32573;51.290;6.926;2023-07-29T14:18:01;2.45;;;1.10;;
46835;SDS011;32573;51.290;6.926;2023-07-29T14:20:30;2.70;;;1.10;;
46835;SDS011;32573;51.290;6.926;2023-07-29T14:22:59;2.55;;;1.10;;
46835;SDS011;32573;51.290;6.926;2023-07-29T14:25:27;2.80;;;1.00;;
46835;SDS011;32573;51.290;6.926;2023-07-29T14:27:58;2.40;;;1.13;;
46835;SDS011;32573;51.290;6.926;2023-07-29T14:30:26;2.85;;;1.20;;
46835;SDS011;32573;51.290;6.926;2023-07-29T14:32:55;2.75;;;1.30;;
46835;SDS011;32573;51.290;6.926;2023-07-29T14:35:23;2.50;;;1.20;;
46835;SDS011;32573;51.290;6.926;2023-07-29T14:37:52;2.80;;;1.13;;
46835;SDS011;32573;51.290;6.926;2023-07-29T14:40:20;3.15;;;1.20;;
46835;SDS011;32573;51.290;6.926;2023-07-29T14:42:49;3.53;;;1.27;;
46835;SDS011;32573;51.290;6.926;2023-07-29T14:45:19;2.53;;;1.10;;
46835;SDS011;32573;51.290;6.926;2023-07-29T14:47:47;2.33;;;1.00;;
46835;SDS011;32573;51.290;6.926;2023-07-29T14:50:16;1.85;;;0.90;;
46835;SDS011;32573;51.290;6.926;2023-07-29T14:52:44;2.20;;;1.00;;
46835;SDS011;32573;51.290;6.926;2023-07-29T14:55:12;2.55;;;1.20;;
46835;SDS011;32573;51.290;6.926;2023-07-29T14:57:41;2.63;;;1.10;;
46835;SDS011;32573;51.290;6.926;2023-07-29T15:00:10;2.20;;;1.00;;
46835;SDS011;32573;51.290;6.926;2023-07-29T15:02:41;2.60;;;1.10;;